sensor_id;sensor_type;location;lat;lon;timestamp;P1;durP1;ratioP1;P2;durP2;ratioP2
19396;SDS011;9834;48.076;11.878;2022-11-09T00:01:40;6.37;;;3.83;;
19396;SDS011;9834;48.076;11.878;2022-11-09T00:04:09;4.07;;;3.50;;
19396;SDS011;9834;48.076;11.878;2022-11-09T00:06:36;4.10;;;3.27;;
19396;SDS011;9834;48.076;11.878;2022-11-09T00:09:04;5.00;;;3.60;;
19396;SDS011;9834;48.076;11.878;2022-11-09T00:11:33;5.00;;;3.57;;
19396;SDS011;9834;48.076;11.878;2022-11-09T00:14:01;6.23;;;3.87;;
19396;SDS011;9834;48.076;11.878;2022-11-09T00:16:28;4.43;;;3.30;;
19396;SDS011;9834;48.076;11.878;2022-11-09T00:18:55;5.87;;;3.70;;
19396;SDS011;9834;48.076;11.878;2022-11-09T00:21:23;6.17;;;3.47;;
19396;SDS011;9834;48.076;11.878;2022-11-09T00:23:51;4.63;;;3.47;;
19396;SDS011;9834;48.076;11.878;2022-11-09T00:26:18;4.30;;;3.57;;
19396;SDS011;9834;48.076;11.878;2022-11-09T00:28:46;4.70;;;3.83;;
19396;SDS011;9834;48.076;11.878;2022-11-09T00:31:13;4.50;;;3.63;;
19396;SDS011;9834;48.076;11.878;2022-11-09T00:33:41;3.67;;;3.27;;
19396;SDS011;9834;48.076;11.878;2022-11-09T00:36:09;4.77;;;3.97;;
19396;SDS011;9834;48.076;11.878;2022-11-09T00:38:39;4.83;;;3.57;;
19396;SDS011;9834;48.076;11.878;2022-11-09T00:41:07;7.00;;;3.37;;
19396;SDS011;9834;48.076;11.878;2022-11-09T00:43:35;3.80;;;3.00;;
19396;SDS011;9834;48.076;11.878;2022-11-09T00:46:02;2.93;;;2.73;;
19396;SDS011;9834;48.076;11.878;2022-11-09T00:48:29;5.90;;;3.53;;
19396;SDS011;9834;48.076;11.878;2022-11-09T00:50:56;5.03;;;3.47;;
19396;SDS011;9834;48.076;11.878;2022-11-09T00:53:23;4.80;;;3.77;;
19396;SDS011;9834;48.076;11.878;2022-11-09T00:55:55;5.03;;;3.33;;
19396;SDS011;9834;48.076;11.878;2022-11-09T00:58:23;6.93;;;3.23;;
19396;SDS011;9834;48.076;11.878;2022-11-09T01:00:51;3.40;;;3.03;;
19396;SDS011;9834;48.076;11.878;2022-11-09T01:03:19;3.07;;;2.77;;
19396;SDS011;9834;48.076;11.878;2022-11-09T01:05:46;4.03;;;3.13;;
19396;SDS011;9834;48.076;11.878;2022-11-09T01:08:13;3.53;;;3.00;;
19396;SDS011;9834;48.076;11.878;2022-11-09T01:10:41;6.80;;;3.40;;
19396;SDS011;9834;48.076;11.878;2022-11-09T01:13:11;5.00;;;3.13;;
19396;SDS011;9834;48.076;11.878;2022-11-09T01:15:40;3.47;;;3.17;;
19396;SDS011;9834;48.076;11.878;2022-11-09T01:18:07;3.00;;;2.57;;
19396;SDS011;9834;48.076;11.878;2022-11-09T01:20:37;6.13;;;3.20;;
19396;SDS011;9834;48.076;11.878;2022-11-09T01:23:05;3.97;;;2.97;;
19396;SDS011;9834;48.076;11.878;2022-11-09T01:25:32;4.23;;;2.80;;
19396;SDS011;9834;48.076;11.878;2022-11-09T01:27:59;8.07;;;2.90;;
19396;SDS011;9834;48.076;11.878;2022-11-09T01:30:27;3.53;;;3.23;;
19396;SDS011;9834;48.076;11.878;2022-11-09T01:32:54;3.70;;;3.03;;
19396;SDS011;9834;48.076;11.878;2022-11-09T01:35:21;5.10;;;3.30;;
19396;SDS011;9834;48.076;11.878;2022-11-09T01:37:48;6.37;;;3.50;;
19396;SDS011;9834;48.076;11.878;2022-11-09T01:40:15;5.70;;;2.70;;
19396;SDS011;9834;48.076;11.878;2022-11-09T01:42:42;10.87;;;3.30;;
19396;SDS011;9834;48.076;11.878;2022-11-09T01:47:57;4.00;;;3.17;;
19396;SDS011;9834;48.076;11.878;2022-11-09T01:50:29;3.93;;;3.50;;
19396;SDS011;9834;48.076;11.878;2022-11-09T01:53:02;3.40;;;3.00;;
19396;SDS011;9834;48.076;11.878;2022-11-09T01:55:31;3.40;;;3.10;;
19396;SDS011;9834;48.076;11.878;2022-11-09T01:57:59;3.93;;;3.17;;
19396;SDS011;9834;48.076;11.878;2022-11-09T02:00:30;3.17;;;2.83;;
19396;SDS011;9834;48.076;11.878;2022-11-09T02:03:00;4.33;;;3.17;;
19396;SDS011;9834;48.076;11.878;2022-11-09T02:05:30;3.93;;;3.03;;
19396;SDS011;9834;48.076;11.878;2022-11-09T02:08:00;4.00;;;3.00;;
19396;SDS011;9834;48.076;11.878;2022-11-09T02:10:28;4.57;;;3.40;;
19396;SDS011;9834;48.076;11.878;2022-11-09T02:12:59;4.57;;;2.90;;
19396;SDS011;9834;48.076;11.878;2022-11-09T02:15:27;5.70;;;3.60;;
19396;SDS011;9834;48.076;11.878;2022-11-09T02:17:56;4.47;;;2.60;;
19396;SDS011;9834;48.076;11.878;2022-11-09T02:20:24;3.27;;;2.97;;
19396;SDS011;9834;48.076;11.878;2022-11-09T02:22:53;4.73;;;2.97;;
19396;SDS011;9834;48.076;11.878;2022-11-09T02:25:20;5.97;;;3.47;;
19396;SDS011;9834;48.076;11.878;2022-11-09T02:27:47;4.17;;;2.80;;
19396;SDS011;9834;48.076;11.878;2022-11-09T02:30:15;6.20;;;3.03;;
19396;SDS011;9834;48.076;11.878;2022-11-09T02:32:44;4.47;;;3.07;;
19396;SDS011;9834;48.076;11.878;2022-11-09T02:35:12;3.03;;;2.77;;
19396;SDS011;9834;48.076;11.878;2022-11-09T02:37:41;4.20;;;3.30;;
19396;SDS011;9834;48.076;11.878;2022-11-09T02:40:12;3.07;;;2.67;;
19396;SDS011;9834;48.076;11.878;2022-11-09T02:42:45;11.37;;;3.33;;
19396;SDS011;9834;48.076;11.878;2022-11-09T02:45:12;4.00;;;2.97;;
19396;SDS011;9834;48.076;11.878;2022-11-09T02:47:39;4.43;;;3.43;;
19396;SDS011;9834;48.076;11.878;2022-11-09T02:50:07;4.67;;;3.00;;
19396;SDS011;9834;48.076;11.878;2022-11-09T02:52:34;4.43;;;3.10;;
19396;SDS011;9834;48.076;11.878;2022-11-09T02:55:02;2.80;;;2.60;;
19396;SDS011;9834;48.076;11.878;2022-11-09T02:57:30;3.43;;;3.13;;
19396;SDS011;9834;48.076;11.878;2022-11-09T02:59:56;4.60;;;2.83;;
19396;SDS011;9834;48.076;11.878;2022-11-09T03:02:23;5.37;;;2.67;;
19396;SDS011;9834;48.076;11.878;2022-11-09T03:04:50;3.10;;;2.80;;
19396;SDS011;9834;48.076;11.878;2022-11-09T03:07:17;2.73;;;2.50;;
19396;SDS011;9834;48.076;11.878;2022-11-09T03:09:44;3.93;;;3.40;;
19396;SDS011;9834;48.076;11.878;2022-11-09T03:12:12;3.87;;;3.10;;
19396;SDS011;9834;48.076;11.878;2022-11-09T03:14:59;4.80;;;2.87;;
19396;SDS011;9834;48.076;11.878;2022-11-09T03:17:27;3.10;;;2.70;;
19396;SDS011;9834;48.076;11.878;2022-11-09T03:19:54;3.67;;;3.13;;
19396;SDS011;9834;48.076;11.878;2022-11-09T03:22:21;6.60;;;3.33;;
19396;SDS011;9834;48.076;11.878;2022-11-09T03:24:48;3.33;;;2.97;;
19396;SDS011;9834;48.076;11.878;2022-11-09T03:27:16;3.20;;;2.90;;
19396;SDS011;9834;48.076;11.878;2022-11-09T03:29:43;3.47;;;3.10;;
19396;SDS011;9834;48.076;11.878;2022-11-09T03:32:10;4.03;;;2.67;;
19396;SDS011;9834;48.076;11.878;2022-11-09T03:34:37;6.37;;;2.97;;
19396;SDS011;9834;48.076;11.878;2022-11-09T03:37:04;4.27;;;2.80;;
19396;SDS011;9834;48.076;11.878;2022-11-09T03:39:31;3.77;;;2.93;;
19396;SDS011;9834;48.076;11.878;2022-11-09T03:41:58;4.47;;;2.97;;
19396;SDS011;9834;48.076;11.878;2022-11-09T03:44:26;3.87;;;3.47;;
19396;SDS011;9834;48.076;11.878;2022-11-09T03:46:53;3.97;;;3.10;;
19396;SDS011;9834;48.076;11.878;2022-11-09T03:49:20;6.47;;;3.13;;
19396;SDS011;9834;48.076;11.878;2022-11-09T03:51:49;3.43;;;2.90;;
19396;SDS011;9834;48.076;11.878;2022-11-09T03:54:16;3.17;;;2.90;;
19396;SDS011;9834;48.076;11.878;2022-11-09T03:56:42;3.90;;;3.10;;
19396;SDS011;9834;48.076;11.878;2022-11-09T03:59:09;5.50;;;3.50;;
19396;SDS011;9834;48.076;11.878;2022-11-09T04:01:38;4.13;;;3.13;;
19396;SDS011;9834;48.076;11.878;2022-11-09T04:04:04;4.50;;;3.07;;
19396;SDS011;9834;48.076;11.878;2022-11-09T04:06:31;3.60;;;3.03;;
19396;SDS011;9834;48.076;11.878;2022-11-09T04:08:58;5.63;;;3.00;;
19396;SDS011;9834;48.076;11.878;2022-11-09T04:11:25;2.53;;;2.30;;
19396;SDS011;9834;48.076;11.878;2022-11-09T04:13:52;3.90;;;3.07;;
19396;SDS011;9834;48.076;11.878;2022-11-09T04:16:19;4.53;;;3.20;;
19396;SDS011;9834;48.076;11.878;2022-11-09T04:18:47;4.90;;;2.90;;
19396;SDS011;9834;48.076;11.878;2022-11-09T04:21:14;3.37;;;3.07;;
19396;SDS011;9834;48.076;11.878;2022-11-09T04:23:41;3.33;;;3.03;;
19396;SDS011;9834;48.076;11.878;2022-11-09T04:26:08;3.97;;;3.17;;
19396;SDS011;9834;48.076;11.878;2022-11-09T04:28:35;3.03;;;2.83;;
19396;SDS011;9834;48.076;11.878;2022-11-09T04:31:02;4.43;;;3.13;;
19396;SDS011;9834;48.076;11.878;2022-11-09T04:33:28;4.80;;;3.53;;
19396;SDS011;9834;48.076;11.878;2022-11-09T04:36:01;4.27;;;2.97;;
19396;SDS011;9834;48.076;11.878;2022-11-09T04:38:28;4.77;;;3.47;;
19396;SDS011;9834;48.076;11.878;2022-11-09T04:44:28;3.23;;;2.93;;
19396;SDS011;9834;48.076;11.878;2022-11-09T04:46:55;4.27;;;3.57;;
19396;SDS011;9834;48.076;11.878;2022-11-09T04:49:22;5.33;;;3.23;;
19396;SDS011;9834;48.076;11.878;2022-11-09T04:51:50;4.30;;;3.53;;
19396;SDS011;9834;48.076;11.878;2022-11-09T04:54:17;4.60;;;2.83;;
19396;SDS011;9834;48.076;11.878;2022-11-09T04:56:44;3.43;;;2.67;;
19396;SDS011;9834;48.076;11.878;2022-11-09T04:59:11;4.50;;;3.67;;
19396;SDS011;9834;48.076;11.878;2022-11-09T05:01:38;3.33;;;2.93;;
19396;SDS011;9834;48.076;11.878;2022-11-09T05:04:05;3.37;;;3.07;;
19396;SDS011;9834;48.076;11.878;2022-11-09T05:06:35;7.10;;;3.47;;
19396;SDS011;9834;48.076;11.878;2022-11-09T05:09:04;3.47;;;3.03;;
19396;SDS011;9834;48.076;11.878;2022-11-09T05:11:33;4.30;;;2.70;;
19396;SDS011;9834;48.076;11.878;2022-11-09T05:14:01;3.53;;;3.13;;
19396;SDS011;9834;48.076;11.878;2022-11-09T05:16:28;3.13;;;2.80;;
19396;SDS011;9834;48.076;11.878;2022-11-09T05:18:55;3.33;;;2.77;;
19396;SDS011;9834;48.076;11.878;2022-11-09T05:21:23;4.00;;;3.13;;
19396;SDS011;9834;48.076;11.878;2022-11-09T05:23:50;3.50;;;2.90;;
19396;SDS011;9834;48.076;11.878;2022-11-09T05:26:27;2.77;;;2.50;;
19396;SDS011;9834;48.076;11.878;2022-11-09T05:28:55;4.00;;;3.00;;
19396;SDS011;9834;48.076;11.878;2022-11-09T05:31:24;3.13;;;2.87;;
19396;SDS011;9834;48.076;11.878;2022-11-09T05:33:51;5.23;;;3.13;;
19396;SDS011;9834;48.076;11.878;2022-11-09T05:36:18;4.53;;;2.67;;
19396;SDS011;9834;48.076;11.878;2022-11-09T05:38:46;2.77;;;2.50;;
19396;SDS011;9834;48.076;11.878;2022-11-09T05:41:14;4.30;;;3.03;;
19396;SDS011;9834;48.076;11.878;2022-11-09T05:43:42;4.17;;;3.27;;
19396;SDS011;9834;48.076;11.878;2022-11-09T05:46:10;4.87;;;3.23;;
19396;SDS011;9834;48.076;11.878;2022-11-09T05:48:37;3.87;;;2.80;;
19396;SDS011;9834;48.076;11.878;2022-11-09T05:51:04;3.90;;;2.93;;
19396;SDS011;9834;48.076;11.878;2022-11-09T05:53:32;2.53;;;2.33;;
19396;SDS011;9834;48.076;11.878;2022-11-09T05:56:03;3.50;;;2.83;;
19396;SDS011;9834;48.076;11.878;2022-11-09T05:58:31;2.30;;;2.10;;
19396;SDS011;9834;48.076;11.878;2022-11-09T06:01:02;3.50;;;3.20;;
19396;SDS011;9834;48.076;11.878;2022-11-09T06:03:29;3.87;;;2.80;;
19396;SDS011;9834;48.076;11.878;2022-11-09T06:05:59;4.90;;;2.43;;
19396;SDS011;9834;48.076;11.878;2022-11-09T06:08:27;4.90;;;2.57;;
19396;SDS011;9834;48.076;11.878;2022-11-09T06:10:56;3.63;;;2.90;;
19396;SDS011;9834;48.076;11.878;2022-11-09T06:13:24;3.07;;;2.77;;
19396;SDS011;9834;48.076;11.878;2022-11-09T06:15:52;3.20;;;2.80;;
19396;SDS011;9834;48.076;11.878;2022-11-09T06:18:21;2.20;;;2.00;;
19396;SDS011;9834;48.076;11.878;2022-11-09T06:20:50;3.40;;;2.90;;
19396;SDS011;9834;48.076;11.878;2022-11-09T06:23:18;3.10;;;2.80;;
19396;SDS011;9834;48.076;11.878;2022-11-09T06:25:50;3.77;;;2.97;;
19396;SDS011;9834;48.076;11.878;2022-11-09T06:28:21;4.20;;;3.17;;
19396;SDS011;9834;48.076;11.878;2022-11-09T06:30:48;3.77;;;2.93;;
19396;SDS011;9834;48.076;11.878;2022-11-09T06:33:15;3.00;;;2.67;;
19396;SDS011;9834;48.076;11.878;2022-11-09T06:35:43;5.37;;;2.83;;
19396;SDS011;9834;48.076;11.878;2022-11-09T06:38:10;5.73;;;2.83;;
19396;SDS011;9834;48.076;11.878;2022-11-09T06:40:37;3.70;;;2.57;;
19396;SDS011;9834;48.076;11.878;2022-11-09T06:43:04;2.33;;;2.13;;
19396;SDS011;9834;48.076;11.878;2022-11-09T06:45:31;4.33;;;3.07;;
19396;SDS011;9834;48.076;11.878;2022-11-09T06:47:59;3.87;;;2.40;;
19396;SDS011;9834;48.076;11.878;2022-11-09T06:50:27;2.17;;;2.07;;
19396;SDS011;9834;48.076;11.878;2022-11-09T06:52:58;3.97;;;2.57;;
19396;SDS011;9834;48.076;11.878;2022-11-09T06:55:26;3.00;;;2.50;;
19396;SDS011;9834;48.076;11.878;2022-11-09T06:57:54;2.67;;;2.20;;
19396;SDS011;9834;48.076;11.878;2022-11-09T07:00:21;2.73;;;2.53;;
19396;SDS011;9834;48.076;11.878;2022-11-09T07:02:48;4.07;;;3.07;;
19396;SDS011;9834;48.076;11.878;2022-11-09T07:05:15;5.93;;;3.27;;
19396;SDS011;9834;48.076;11.878;2022-11-09T07:07:43;5.17;;;2.80;;
19396;SDS011;9834;48.076;11.878;2022-11-09T07:10:11;4.90;;;2.93;;
19396;SDS011;9834;48.076;11.878;2022-11-09T07:12:38;4.73;;;2.93;;
19396;SDS011;9834;48.076;11.878;2022-11-09T07:15:06;5.07;;;2.53;;
19396;SDS011;9834;48.076;11.878;2022-11-09T07:17:33;3.50;;;2.40;;
19396;SDS011;9834;48.076;11.878;2022-11-09T07:20:04;6.10;;;3.10;;
19396;SDS011;9834;48.076;11.878;2022-11-09T07:22:31;4.13;;;2.30;;
19396;SDS011;9834;48.076;11.878;2022-11-09T07:25:03;4.63;;;3.27;;
19396;SDS011;9834;48.076;11.878;2022-11-09T07:27:32;4.23;;;3.70;;
19396;SDS011;9834;48.076;11.878;2022-11-09T07:29:59;5.53;;;4.30;;
19396;SDS011;9834;48.076;11.878;2022-11-09T07:32:26;3.77;;;1.93;;
19396;SDS011;9834;48.076;11.878;2022-11-09T07:34:53;3.20;;;1.70;;
19396;SDS011;9834;48.076;11.878;2022-11-09T07:37:20;1.97;;;1.23;;
19396;SDS011;9834;48.076;11.878;2022-11-09T07:39:47;2.93;;;1.53;;
19396;SDS011;9834;48.076;11.878;2022-11-09T07:42:14;1.77;;;1.00;;
19396;SDS011;9834;48.076;11.878;2022-11-09T07:44:42;0.87;;;0.83;;
19396;SDS011;9834;48.076;11.878;2022-11-09T07:47:10;1.83;;;0.90;;
19396;SDS011;9834;48.076;11.878;2022-11-09T07:49:37;0.60;;;0.60;;
19396;SDS011;9834;48.076;11.878;2022-11-09T07:52:04;0.77;;;0.77;;
19396;SDS011;9834;48.076;11.878;2022-11-09T07:54:31;0.90;;;0.90;;
19396;SDS011;9834;48.076;11.878;2022-11-09T07:56:58;0.60;;;0.60;;
19396;SDS011;9834;48.076;11.878;2022-11-09T07:59:25;1.20;;;0.83;;
19396;SDS011;9834;48.076;11.878;2022-11-09T08:01:53;1.20;;;1.00;;
19396;SDS011;9834;48.076;11.878;2022-11-09T08:04:20;1.83;;;0.90;;
19396;SDS011;9834;48.076;11.878;2022-11-09T08:06:47;1.93;;;0.90;;
19396;SDS011;9834;48.076;11.878;2022-11-09T08:09:16;1.40;;;0.90;;
19396;SDS011;9834;48.076;11.878;2022-11-09T08:11:43;1.63;;;0.93;;
19396;SDS011;9834;48.076;11.878;2022-11-09T08:14:10;1.23;;;0.97;;
19396;SDS011;9834;48.076;11.878;2022-11-09T08:16:37;1.20;;;1.10;;
19396;SDS011;9834;48.076;11.878;2022-11-09T08:19:06;2.37;;;1.63;;
19396;SDS011;9834;48.076;11.878;2022-11-09T08:21:34;1.73;;;1.60;;
19396;SDS011;9834;48.076;11.878;2022-11-09T08:24:01;3.07;;;2.00;;
19396;SDS011;9834;48.076;11.878;2022-11-09T08:26:28;3.40;;;1.97;;
19396;SDS011;9834;48.076;11.878;2022-11-09T08:28:55;5.17;;;2.03;;
19396;SDS011;9834;48.076;11.878;2022-11-09T08:31:22;2.73;;;1.73;;
19396;SDS011;9834;48.076;11.878;2022-11-09T08:33:49;2.83;;;2.20;;
19396;SDS011;9834;48.076;11.878;2022-11-09T08:36:17;5.50;;;2.90;;
19396;SDS011;9834;48.076;11.878;2022-11-09T08:38:44;4.00;;;3.10;;
19396;SDS011;9834;48.076;11.878;2022-11-09T08:41:11;3.97;;;3.30;;
19396;SDS011;9834;48.076;11.878;2022-11-09T08:43:39;5.43;;;3.10;;
19396;SDS011;9834;48.076;11.878;2022-11-09T08:46:06;7.00;;;3.13;;
19396;SDS011;9834;48.076;11.878;2022-11-09T08:48:33;1.30;;;1.10;;
19396;SDS011;9834;48.076;11.878;2022-11-09T08:51:00;1.40;;;1.30;;
19396;SDS011;9834;48.076;11.878;2022-11-09T08:53:28;1.70;;;1.30;;
19396;SDS011;9834;48.076;11.878;2022-11-09T08:55:55;6.07;;;4.80;;
19396;SDS011;9834;48.076;11.878;2022-11-09T08:58:22;10.57;;;5.20;;
19396;SDS011;9834;48.076;11.878;2022-11-09T09:00:49;5.40;;;2.93;;
19396;SDS011;9834;48.076;11.878;2022-11-09T09:03:16;3.33;;;2.30;;
19396;SDS011;9834;48.076;11.878;2022-11-09T09:05:43;2.07;;;1.60;;
19396;SDS011;9834;48.076;11.878;2022-11-09T09:08:10;1.73;;;1.53;;
19396;SDS011;9834;48.076;11.878;2022-11-09T09:10:40;0.77;;;0.70;;
19396;SDS011;9834;48.076;11.878;2022-11-09T09:13:07;0.80;;;0.80;;
19396;SDS011;9834;48.076;11.878;2022-11-09T09:15:34;0.60;;;0.60;;
19396;SDS011;9834;48.076;11.878;2022-11-09T09:18:01;3.00;;;0.93;;
19396;SDS011;9834;48.076;11.878;2022-11-09T09:20:29;0.67;;;0.57;;
19396;SDS011;9834;48.076;11.878;2022-11-09T09:22:56;1.90;;;1.30;;
19396;SDS011;9834;48.076;11.878;2022-11-09T09:25:24;4.37;;;0.90;;
19396;SDS011;9834;48.076;11.878;2022-11-09T09:27:52;1.50;;;0.80;;
19396;SDS011;9834;48.076;11.878;2022-11-09T09:30:19;1.30;;;0.67;;
19396;SDS011;9834;48.076;11.878;2022-11-09T09:32:46;0.97;;;0.70;;
19396;SDS011;9834;48.076;11.878;2022-11-09T09:35:13;0.93;;;0.73;;
19396;SDS011;9834;48.076;11.878;2022-11-09T09:37:41;0.70;;;0.70;;
19396;SDS011;9834;48.076;11.878;2022-11-09T09:40:10;1.83;;;0.80;;
19396;SDS011;9834;48.076;11.878;2022-11-09T09:42:48;2.00;;;0.83;;
19396;SDS011;9834;48.076;11.878;2022-11-09T09:45:19;0.70;;;0.67;;
19396;SDS011;9834;48.076;11.878;2022-11-09T09:47:51;0.40;;;0.33;;
19396;SDS011;9834;48.076;11.878;2022-11-09T09:50:22;0.50;;;0.50;;
19396;SDS011;9834;48.076;11.878;2022-11-09T09:52:54;0.60;;;0.60;;
19396;SDS011;9834;48.076;11.878;2022-11-09T09:55:24;1.00;;;0.73;;
19396;SDS011;9834;48.076;11.878;2022-11-09T09:57:58;0.73;;;0.73;;
19396;SDS011;9834;48.076;11.878;2022-11-09T10:00:32;0.57;;;0.57;;
19396;SDS011;9834;48.076;11.878;2022-11-09T10:03:03;0.90;;;0.77;;
19396;SDS011;9834;48.076;11.878;2022-11-09T10:05:35;1.03;;;0.70;;
19396;SDS011;9834;48.076;11.878;2022-11-09T10:08:15;0.50;;;0.50;;
19396;SDS011;9834;48.076;11.878;2022-11-09T10:10:54;0.60;;;0.50;;
19396;SDS011;9834;48.076;11.878;2022-11-09T10:13:46;0.50;;;0.50;;
19396;SDS011;9834;48.076;11.878;2022-11-09T10:16:27;0.70;;;0.70;;
19396;SDS011;9834;48.076;11.878;2022-11-09T10:19:15;4.83;;;1.07;;
19396;SDS011;9834;48.076;11.878;2022-11-09T10:21:51;0.30;;;0.30;;
19396;SDS011;9834;48.076;11.878;2022-11-09T10:24:27;0.30;;;0.30;;
19396;SDS011;9834;48.076;11.878;2022-11-09T10:27:00;0.43;;;0.43;;
19396;SDS011;9834;48.076;11.878;2022-11-09T10:29:38;0.43;;;0.43;;
19396;SDS011;9834;48.076;11.878;2022-11-09T10:32:11;3.80;;;0.70;;
19396;SDS011;9834;48.076;11.878;2022-11-09T10:34:41;2.10;;;0.83;;
19396;SDS011;9834;48.076;11.878;2022-11-09T10:37:15;0.70;;;0.70;;
19396;SDS011;9834;48.076;11.878;2022-11-09T10:39:46;0.53;;;0.53;;
19396;SDS011;9834;48.076;11.878;2022-11-09T10:42:24;0.73;;;0.50;;
19396;SDS011;9834;48.076;11.878;2022-11-09T10:44:51;0.80;;;0.80;;
19396;SDS011;9834;48.076;11.878;2022-11-09T10:47:19;0.60;;;0.60;;
19396;SDS011;9834;48.076;11.878;2022-11-09T10:49:55;0.93;;;0.88;;
19396;SDS011;9834;48.076;11.878;2022-11-09T10:52:33;1.37;;;1.00;;
19396;SDS011;9834;48.076;11.878;2022-11-09T10:55:23;0.82;;;0.63;;
19396;SDS011;9834;48.076;11.878;2022-11-09T10:57:52;0.75;;;0.75;;
19396;SDS011;9834;48.076;11.878;2022-11-09T11:00:22;0.50;;;0.50;;
19396;SDS011;9834;48.076;11.878;2022-11-09T11:02:51;0.40;;;0.40;;
19396;SDS011;9834;48.076;11.878;2022-11-09T11:05:20;0.73;;;0.73;;
19396;SDS011;9834;48.076;11.878;2022-11-09T11:07:52;0.32;;;0.32;;
19396;SDS011;9834;48.076;11.878;2022-11-09T11:10:19;1.45;;;0.75;;
19396;SDS011;9834;48.076;11.878;2022-11-09T11:12:50;0.45;;;0.45;;
19396;SDS011;9834;48.076;11.878;2022-11-09T11:15:24;0.68;;;0.68;;
19396;SDS011;9834;48.076;11.878;2022-11-09T11:18:00;0.65;;;0.45;;
19396;SDS011;9834;48.076;11.878;2022-11-09T11:20:30;0.55;;;0.55;;
19396;SDS011;9834;48.076;11.878;2022-11-09T11:23:06;0.60;;;0.60;;
19396;SDS011;9834;48.076;11.878;2022-11-09T11:25:38;0.90;;;0.57;;
19396;SDS011;9834;48.076;11.878;2022-11-09T11:28:20;0.68;;;0.63;;
19396;SDS011;9834;48.076;11.878;2022-11-09T11:30:52;1.20;;;0.63;;
19396;SDS011;9834;48.076;11.878;2022-11-09T11:33:20;0.57;;;0.57;;
19396;SDS011;9834;48.076;11.878;2022-11-09T11:35:48;0.80;;;0.80;;
19396;SDS011;9834;48.076;11.878;2022-11-09T11:38:24;1.70;;;0.57;;
19396;SDS011;9834;48.076;11.878;2022-11-09T11:40:59;1.85;;;0.88;;
19396;SDS011;9834;48.076;11.878;2022-11-09T11:43:33;0.68;;;0.68;;
19396;SDS011;9834;48.076;11.878;2022-11-09T11:46:09;1.83;;;1.08;;
19396;SDS011;9834;48.076;11.878;2022-11-09T11:51:54;0.43;;;0.43;;
19396;SDS011;9834;48.076;11.878;2022-11-09T11:54:30;1.25;;;1.05;;
19396;SDS011;9834;48.076;11.878;2022-11-09T11:57:07;0.80;;;0.80;;
19396;SDS011;9834;48.076;11.878;2022-11-09T11:59:53;0.98;;;0.88;;
19396;SDS011;9834;48.076;11.878;2022-11-09T12:06:00;0.80;;;0.80;;
19396;SDS011;9834;48.076;11.878;2022-11-09T12:08:43;0.80;;;0.80;;
19396;SDS011;9834;48.076;11.878;2022-11-09T12:11:34;0.93;;;0.93;;
19396;SDS011;9834;48.076;11.878;2022-11-09T12:14:11;1.05;;;0.95;;
19396;SDS011;9834;48.076;11.878;2022-11-09T12:16:50;1.25;;;1.20;;
19396;SDS011;9834;48.076;11.878;2022-11-09T12:19:30;0.70;;;0.70;;
19396;SDS011;9834;48.076;11.878;2022-11-09T12:22:08;1.23;;;0.98;;
19396;SDS011;9834;48.076;11.878;2022-11-09T12:24:45;0.88;;;0.82;;
19396;SDS011;9834;48.076;11.878;2022-11-09T12:30:27;0.93;;;0.93;;
19396;SDS011;9834;48.076;11.878;2022-11-09T12:33:04;1.15;;;0.90;;
19396;SDS011;9834;48.076;11.878;2022-11-09T12:35:38;1.60;;;0.93;;
19396;SDS011;9834;48.076;11.878;2022-11-09T12:38:11;0.77;;;0.77;;
19396;SDS011;9834;48.076;11.878;2022-11-09T12:40:45;3.47;;;1.35;;
19396;SDS011;9834;48.076;11.878;2022-11-09T12:43:17;1.35;;;1.00;;
19396;SDS011;9834;48.076;11.878;2022-11-09T12:45:48;0.80;;;0.80;;
19396;SDS011;9834;48.076;11.878;2022-11-09T12:48:20;0.60;;;0.60;;
19396;SDS011;9834;48.076;11.878;2022-11-09T12:50:49;0.68;;;0.55;;
19396;SDS011;9834;48.076;11.878;2022-11-09T12:53:17;0.77;;;0.73;;
19396;SDS011;9834;48.076;11.878;2022-11-09T12:55:49;0.63;;;0.63;;
19396;SDS011;9834;48.076;11.878;2022-11-09T12:58:21;0.75;;;0.70;;
19396;SDS011;9834;48.076;11.878;2022-11-09T13:00:49;0.50;;;0.50;;
19396;SDS011;9834;48.076;11.878;2022-11-09T13:03:19;1.33;;;1.08;;
19396;SDS011;9834;48.076;11.878;2022-11-09T13:06:07;1.27;;;1.05;;
19396;SDS011;9834;48.076;11.878;2022-11-09T13:08:36;1.20;;;1.10;;
19396;SDS011;9834;48.076;11.878;2022-11-09T13:11:10;1.33;;;1.23;;
19396;SDS011;9834;48.076;11.878;2022-11-09T13:13:45;1.75;;;0.70;;
19396;SDS011;9834;48.076;11.878;2022-11-09T13:16:32;1.10;;;1.10;;
19396;SDS011;9834;48.076;11.878;2022-11-09T13:19:00;0.77;;;0.77;;
19396;SDS011;9834;48.076;11.878;2022-11-09T13:21:39;0.60;;;0.60;;
19396;SDS011;9834;48.076;11.878;2022-11-09T13:41:52;2.50;;;1.08;;
19396;SDS011;9834;48.076;11.878;2022-11-09T13:44:29;1.20;;;0.93;;
19396;SDS011;9834;48.076;11.878;2022-11-09T13:46:57;0.90;;;0.88;;
19396;SDS011;9834;48.076;11.878;2022-11-09T13:49:41;1.25;;;0.98;;
19396;SDS011;9834;48.076;11.878;2022-11-09T13:55:15;0.77;;;0.77;;
19396;SDS011;9834;48.076;11.878;2022-11-09T13:57:57;2.13;;;1.75;;
19396;SDS011;9834;48.076;11.878;2022-11-09T14:00:28;2.42;;;1.10;;
19396;SDS011;9834;48.076;11.878;2022-11-09T14:02:57;3.00;;;2.05;;
19396;SDS011;9834;48.076;11.878;2022-11-09T14:05:27;2.15;;;1.70;;
19396;SDS011;9834;48.076;11.878;2022-11-09T14:07:57;3.28;;;2.65;;
19396;SDS011;9834;48.076;11.878;2022-11-09T14:13:26;6.03;;;3.80;;
19396;SDS011;9834;48.076;11.878;2022-11-09T14:16:05;5.93;;;3.58;;
19396;SDS011;9834;48.076;11.878;2022-11-09T14:18:44;0.73;;;0.73;;
19396;SDS011;9834;48.076;11.878;2022-11-09T14:21:29;0.85;;;0.80;;
19396;SDS011;9834;48.076;11.878;2022-11-09T14:24:02;0.70;;;0.70;;
19396;SDS011;9834;48.076;11.878;2022-11-09T14:26:39;3.28;;;1.00;;
19396;SDS011;9834;48.076;11.878;2022-11-09T14:29:24;1.35;;;1.17;;
19396;SDS011;9834;48.076;11.878;2022-11-09T14:31:53;1.38;;;1.15;;
19396;SDS011;9834;48.076;11.878;2022-11-09T14:34:20;2.92;;;1.60;;
19396;SDS011;9834;48.076;11.878;2022-11-09T14:36:50;3.22;;;1.25;;
19396;SDS011;9834;48.076;11.878;2022-11-09T14:39:20;1.40;;;1.23;;
19396;SDS011;9834;48.076;11.878;2022-11-09T14:41:52;1.95;;;1.75;;
19396;SDS011;9834;48.076;11.878;2022-11-09T14:44:22;1.45;;;1.35;;
19396;SDS011;9834;48.076;11.878;2022-11-09T14:46:53;1.98;;;1.42;;
19396;SDS011;9834;48.076;11.878;2022-11-09T14:49:22;0.93;;;0.90;;
19396;SDS011;9834;48.076;11.878;2022-11-09T14:51:52;4.00;;;1.75;;
19396;SDS011;9834;48.076;11.878;2022-11-09T14:54:20;1.95;;;1.67;;
19396;SDS011;9834;48.076;11.878;2022-11-09T14:56:50;2.55;;;1.50;;
19396;SDS011;9834;48.076;11.878;2022-11-09T14:59:20;1.95;;;1.73;;
19396;SDS011;9834;48.076;11.878;2022-11-09T15:01:57;1.83;;;1.67;;
19396;SDS011;9834;48.076;11.878;2022-11-09T15:04:26;4.03;;;1.98;;
19396;SDS011;9834;48.076;11.878;2022-11-09T15:06:53;2.27;;;2.07;;
19396;SDS011;9834;48.076;11.878;2022-11-09T15:09:26;3.17;;;1.47;;
19396;SDS011;9834;48.076;11.878;2022-11-09T15:11:58;1.50;;;1.30;;
19396;SDS011;9834;48.076;11.878;2022-11-09T15:14:27;1.50;;;1.40;;
19396;SDS011;9834;48.076;11.878;2022-11-09T15:16:58;2.50;;;1.50;;
19396;SDS011;9834;48.076;11.878;2022-11-09T15:19:30;2.47;;;1.57;;
19396;SDS011;9834;48.076;11.878;2022-11-09T15:21:58;1.87;;;1.77;;
19396;SDS011;9834;48.076;11.878;2022-11-09T15:24:26;2.67;;;1.70;;
19396;SDS011;9834;48.076;11.878;2022-11-09T15:26:54;2.00;;;1.77;;
19396;SDS011;9834;48.076;11.878;2022-11-09T15:29:29;1.77;;;1.67;;
19396;SDS011;9834;48.076;11.878;2022-11-09T15:32:10;2.73;;;1.97;;
19396;SDS011;9834;48.076;11.878;2022-11-09T15:34:40;7.57;;;2.17;;
19396;SDS011;9834;48.076;11.878;2022-11-09T15:37:19;7.80;;;3.30;;
19396;SDS011;9834;48.076;11.878;2022-11-09T15:39:48;3.47;;;2.93;;
19396;SDS011;9834;48.076;11.878;2022-11-09T15:42:15;7.23;;;3.27;;
19396;SDS011;9834;48.076;11.878;2022-11-09T15:44:43;8.23;;;3.60;;